createdAt,value
2023-02-19T00:00:22.931Z,132.07
2023-02-19T00:01:22.952Z,127.75
2023-02-19T00:02:22.771Z,123.44
2023-02-19T00:03:22.817Z,118.56
2023-02-19T00:04:23.060Z,114.76
2023-02-19T00:05:22.741Z,112.68
2023-02-19T00:06:23.123Z,112.91
2023-02-19T00:07:22.880Z,112.83
2023-02-19T00:08:23.199Z,111.71
2023-02-19T00:09:22.671Z,109.39
2023-02-19T00:10:22.681Z,108.05
2023-02-19T00:11:22.640Z,105.14
2023-02-19T00:12:22.649Z,103.84
2023-02-19T00:13:22.641Z,100.97
2023-02-19T00:14:22.645Z,98.84
2023-02-19T00:15:22.653Z,96.73
2023-02-19T00:16:22.766Z,93.82
2023-02-19T00:17:22.584Z,93.58
2023-02-19T00:18:22.573Z,92.56
2023-02-19T00:19:22.567Z,90.17
2023-02-19T00:20:22.658Z,89.40
2023-02-19T00:21:22.533Z,89.21
2023-02-19T00:22:22.534Z,89.40
2023-02-19T00:23:22.679Z,88.46
2023-02-19T00:24:22.516Z,87.82
2023-02-19T00:25:22.654Z,87.45
2023-02-19T00:26:22.487Z,87.36
2023-02-19T00:27:22.451Z,87.63
2023-02-19T00:28:22.484Z,87.54
2023-02-19T00:29:22.458Z,88.46
2023-02-19T00:30:22.467Z,89.03
2023-02-19T00:31:22.774Z,90.37
2023-02-19T00:32:22.688Z,91.45
2023-02-19T00:33:22.391Z,92.35
2023-02-19T00:34:22.396Z,92.56
2023-02-19T00:35:22.376Z,91.65
2023-02-19T00:36:22.668Z,89.98
2023-02-19T00:37:22.582Z,87.82
2023-02-19T00:38:22.328Z,85.93
2023-02-19T00:39:22.667Z,83.21
2023-02-19T00:40:22.538Z,80.73
2023-02-19T00:41:22.318Z,78.47
2023-02-19T00:42:22.277Z,74.97
2023-02-19T00:43:22.288Z,72.02
2023-02-19T00:44:22.335Z,69.52
2023-02-19T00:45:22.284Z,66.92
2023-02-19T00:46:22.258Z,64.65
2023-02-19T00:47:22.477Z,62.44
2023-02-19T00:48:22.209Z,60.90
2023-02-19T00:49:22.291Z,59.23
2023-02-19T00:50:22.190Z,57.76
2023-02-19T00:51:22.208Z,55.70
2023-02-19T00:52:22.636Z,53.98
2023-02-19T00:53:22.389Z,52.96
2023-02-19T00:54:22.151Z,51.47
2023-02-19T00:55:22.684Z,49.94
2023-02-19T00:56:22.138Z,48.39
2023-02-19T00:57:22.148Z,47.41
2023-02-19T00:58:22.089Z,46.34
2023-02-19T00:59:22.130Z,45.83
2023-02-19T01:00:22.125Z,45.05
2023-02-19T01:01:22.200Z,43.92
2023-02-19T01:02:22.069Z,42.58
2023-02-19T01:03:22.235Z,41.05
2023-02-19T01:04:22.082Z,39.77
2023-02-19T01:05:22.086Z,38.46
2023-02-19T01:06:22.003Z,37.50
2023-02-19T01:07:22.017Z,36.43
2023-02-19T01:08:22.054Z,35.21
2023-02-19T01:09:22.396Z,34.40
2023-02-19T01:10:21.956Z,33.74
2023-02-19T01:11:22.472Z,33.13
2023-02-19T01:12:22.477Z,32.51
2023-02-19T01:13:22.518Z,32.04
2023-02-19T01:14:21.909Z,31.56
2023-02-19T01:15:21.931Z,31.10
2023-02-19T01:16:22.536Z,30.75
2023-02-19T01:17:22.390Z,30.33
2023-02-19T01:18:21.861Z,29.92
2023-02-19T01:19:21.876Z,29.42
2023-02-19T01:20:22.138Z,29.00
2023-02-19T01:21:22.636Z,28.45
2023-02-19T01:22:21.817Z,28.10
2023-02-19T01:23:21.826Z,27.72
2023-02-19T01:24:22.700Z,27.35
2023-02-19T01:25:22.710Z,26.99
2023-02-19T01:26:22.668Z,26.66
2023-02-19T01:27:21.784Z,26.31
2023-02-19T01:28:21.745Z,26.03
2023-02-19T01:29:21.739Z,25.67
2023-02-19T01:30:21.757Z,25.38
2023-02-19T01:31:21.879Z,25.03
2023-02-19T01:32:21.776Z,24.73
2023-02-19T01:33:21.716Z,24.39
2023-02-19T01:34:21.663Z,24.06
2023-02-19T01:35:21.694Z,23.73
2023-02-19T01:36:21.695Z,23.56
2023-02-19T01:37:21.707Z,23.25
2023-02-19T01:38:21.621Z,22.94
2023-02-19T01:39:21.634Z,22.72
2023-02-19T01:40:21.708Z,22.38
2023-02-19T01:41:21.598Z,22.22
2023-02-19T01:42:21.567Z,21.96
2023-02-19T01:43:21.582Z,21.78
2023-02-19T01:44:21.573Z,21.51
2023-02-19T01:45:21.713Z,21.31
2023-02-19T01:46:21.575Z,21.04
2023-02-19T01:47:21.547Z,20.95
2023-02-19T01:48:21.574Z,20.73
2023-02-19T01:49:21.509Z,20.56
2023-02-19T01:50:21.478Z,20.34
2023-02-19T01:51:21.502Z,20.25
2023-02-19T01:52:21.477Z,20.01
2023-02-19T01:53:21.466Z,19.90
2023-02-19T01:54:21.457Z,19.81
2023-02-19T01:55:21.430Z,19.64
2023-02-19T01:56:21.716Z,19.48
2023-02-19T01:57:21.727Z,19.35
2023-02-19T01:58:21.381Z,19.19
2023-02-19T01:59:21.404Z,19.03
2023-02-19T02:00:21.381Z,18.95
2023-02-19T02:01:21.362Z,18.86
2023-02-19T02:02:21.365Z,18.76
2023-02-19T02:03:21.330Z,18.60
2023-02-19T02:04:21.733Z,18.51
2023-02-19T02:05:21.336Z,18.42
2023-02-19T02:06:21.301Z,18.32
2023-02-19T02:07:21.293Z,18.23
2023-02-19T02:08:21.743Z,18.07
2023-02-19T02:09:21.295Z,18.01
2023-02-19T02:10:21.241Z,17.92
2023-02-19T02:11:21.275Z,17.87
2023-02-19T02:12:21.234Z,17.76
2023-02-19T02:13:21.255Z,17.63
2023-02-19T02:14:21.205Z,17.61
2023-02-19T02:15:21.317Z,17.50
2023-02-19T02:16:21.376Z,17.44
2023-02-19T02:17:21.377Z,17.34
2023-02-19T02:18:21.155Z,17.28
2023-02-19T02:19:21.162Z,17.27
2023-02-19T02:20:21.467Z,17.13
2023-02-19T02:21:21.146Z,17.08
2023-02-19T02:22:21.530Z,17.08
2023-02-19T02:23:21.108Z,16.95
2023-02-19T02:24:21.091Z,16.93
2023-02-19T02:25:21.590Z,16.83
2023-02-19T02:26:21.098Z,16.77
2023-02-19T02:27:21.081Z,16.70
2023-02-19T02:28:21.277Z,16.69
2023-02-19T02:29:21.756Z,16.68
2023-02-19T02:30:21.069Z,16.70
2023-02-19T02:31:21.182Z,16.60
2023-02-19T02:32:21.865Z,16.52
2023-02-19T02:33:21.004Z,16.59
2023-02-19T02:34:20.972Z,16.51
2023-02-19T02:35:20.978Z,16.47
2023-02-19T02:36:21.018Z,16.51
2023-02-19T02:37:21.048Z,16.47
2023-02-19T02:38:21.079Z,16.41
2023-02-19T02:39:21.112Z,16.37
2023-02-19T02:40:21.142Z,16.37
2023-02-19T02:41:21.208Z,16.35
2023-02-19T02:42:20.878Z,16.35
2023-02-19T02:43:20.890Z,16.26
2023-02-19T02:44:21.270Z,16.28
2023-02-19T02:45:20.849Z,16.19
2023-02-19T02:46:20.868Z,16.25
2023-02-19T02:47:21.371Z,16.22
2023-02-19T02:48:21.427Z,16.15
2023-02-19T02:49:20.810Z,16.15
2023-02-19T02:50:20.791Z,16.10
2023-02-19T02:51:20.797Z,16.12
2023-02-19T02:52:21.434Z,16.13
2023-02-19T02:53:20.797Z,16.09
2023-02-19T02:54:20.739Z,16.10
2023-02-19T02:55:20.769Z,16.08
2023-02-19T02:56:20.772Z,16.00
2023-02-19T02:57:20.721Z,16.04
2023-02-19T02:58:20.720Z,16.02
2023-02-19T02:59:20.693Z,16.03
2023-02-19T03:00:20.778Z,16.03
2023-02-19T03:01:20.806Z,16.02
2023-02-19T03:02:20.867Z,16.00
2023-02-19T03:03:20.779Z,16.02
2023-02-19T03:04:20.662Z,15.93
2023-02-19T03:05:20.790Z,15.98
2023-02-19T03:06:20.781Z,15.98
2023-02-19T03:07:20.632Z,15.99
2023-02-19T03:08:20.867Z,16.02
2023-02-19T03:09:20.596Z,16.05
2023-02-19T03:10:20.782Z,16.08
2023-02-19T03:11:20.710Z,16.02
2023-02-19T03:12:20.780Z,16.02
2023-02-19T03:13:20.546Z,15.98
2023-02-19T03:14:21.241Z,15.92
2023-02-19T03:15:20.506Z,15.97
2023-02-19T03:16:21.341Z,15.96
2023-02-19T03:17:20.792Z,15.96
2023-02-19T03:18:20.797Z,15.87
2023-02-19T03:19:20.798Z,15.94
2023-02-19T03:20:20.787Z,15.87
2023-02-19T03:21:20.806Z,15.92
2023-02-19T03:22:20.407Z,15.96
2023-02-19T03:23:20.435Z,15.90
2023-02-19T03:24:20.448Z,15.92
2023-02-19T03:25:20.486Z,15.90
2023-02-19T03:26:20.511Z,15.90
2023-02-19T03:27:20.590Z,15.86
2023-02-19T03:28:20.591Z,15.86
2023-02-19T03:29:20.623Z,15.87
2023-02-19T03:30:20.750Z,15.86
2023-02-19T03:31:20.417Z,15.77
2023-02-19T03:32:20.793Z,15.87
2023-02-19T03:33:20.727Z,15.87
2023-02-19T03:34:20.758Z,15.86
2023-02-19T03:35:20.714Z,15.88
2023-02-19T03:36:20.801Z,15.93
2023-02-19T03:37:20.647Z,15.90
2023-02-19T03:38:20.392Z,15.93
2023-02-19T03:39:20.798Z,15.90
2023-02-19T03:40:20.934Z,15.96
2023-02-19T03:41:20.308Z,15.91
2023-02-19T03:42:20.187Z,15.93
2023-02-19T03:43:20.193Z,15.90
2023-02-19T03:44:20.220Z,15.97
2023-02-19T03:45:20.252Z,15.96
2023-02-19T03:46:20.119Z,15.88
2023-02-19T03:47:20.321Z,15.97
2023-02-19T03:48:20.364Z,15.98
2023-02-19T03:49:20.112Z,15.98
2023-02-19T03:50:20.422Z,16.03
2023-02-19T03:51:20.460Z,16.04
2023-02-19T03:52:20.491Z,16.05
2023-02-19T03:53:20.081Z,16.00
2023-02-19T03:54:20.048Z,15.98
2023-02-19T03:55:20.052Z,16.07
2023-02-19T03:56:20.625Z,16.07
2023-02-19T03:57:20.331Z,16.09
2023-02-19T03:58:20.685Z,16.00
2023-02-19T03:59:20.716Z,16.03
2023-02-19T04:00:20.649Z,16.12
2023-02-19T04:01:20.799Z,16.09
2023-02-19T04:02:20.024Z,16.12
2023-02-19T04:03:20.304Z,16.07
2023-02-19T04:04:20.863Z,16.14
2023-02-19T04:05:19.948Z,16.07
2023-02-19T04:06:20.145Z,16.09
2023-02-19T04:07:20.826Z,16.17
2023-02-19T04:08:20.825Z,16.17
2023-02-19T04:09:20.435Z,16.20
2023-02-19T04:10:19.878Z,16.14
2023-02-19T04:11:19.857Z,16.19
2023-02-19T04:12:19.857Z,16.20
2023-02-19T04:13:19.850Z,16.22
2023-02-19T04:14:19.840Z,16.33
2023-02-19T04:15:19.855Z,16.35
2023-02-19T04:16:19.808Z,16.46
2023-02-19T04:17:19.834Z,16.48
2023-02-19T04:18:19.786Z,16.42
2023-02-19T04:19:19.835Z,16.48
2023-02-19T04:20:19.825Z,16.52
2023-02-19T04:21:19.840Z,16.60
2023-02-19T04:22:19.787Z,16.60
2023-02-19T04:23:19.751Z,16.61
2023-02-19T04:24:19.843Z,16.69
2023-02-19T04:25:19.840Z,16.70
2023-02-19T04:26:19.842Z,16.81
2023-02-19T04:27:19.697Z,16.85
2023-02-19T04:28:19.676Z,16.92
2023-02-19T04:29:19.658Z,16.93
2023-02-19T04:30:19.772Z,17.00
2023-02-19T04:31:19.815Z,16.98
2023-02-19T04:32:19.797Z,17.06
2023-02-19T04:33:19.853Z,17.10
2023-02-19T04:34:19.588Z,17.10
2023-02-19T04:35:19.575Z,17.14
2023-02-19T04:36:19.742Z,17.20
2023-02-19T04:37:19.846Z,17.33
2023-02-19T04:38:19.576Z,17.42
2023-02-19T04:39:19.592Z,17.44
2023-02-19T04:40:19.833Z,17.51
2023-02-19T04:41:19.514Z,17.56
2023-02-19T04:42:19.484Z,17.63
2023-02-19T04:43:19.849Z,17.75
2023-02-19T04:44:19.840Z,17.79
2023-02-19T04:45:19.842Z,17.87
2023-02-19T04:46:19.897Z,17.87
2023-02-19T04:47:19.446Z,17.95
2023-02-19T04:48:19.850Z,17.96
2023-02-19T04:49:19.504Z,18.07
2023-02-19T04:50:19.404Z,18.23
2023-02-19T04:51:19.825Z,18.31
2023-02-19T04:52:19.854Z,18.48
2023-02-19T04:53:19.859Z,18.50
2023-02-19T04:54:19.856Z,18.61
2023-02-19T04:55:19.339Z,18.70
2023-02-19T04:56:19.382Z,18.73
2023-02-19T04:57:19.409Z,18.78
2023-02-19T04:58:19.329Z,18.83
2023-02-19T04:59:19.281Z,18.83
2023-02-19T05:00:19.521Z,18.92
2023-02-19T05:01:19.328Z,19.07
2023-02-19T05:02:19.594Z,19.05
2023-02-19T05:03:19.242Z,19.16
2023-02-19T05:04:19.708Z,19.19
2023-02-19T05:05:19.225Z,19.23
2023-02-19T05:06:19.214Z,19.26
2023-02-19T05:07:19.212Z,19.26
2023-02-19T05:08:19.814Z,19.32
2023-02-19T05:09:19.172Z,19.37
2023-02-19T05:10:19.873Z,19.42
2023-02-19T05:11:19.149Z,19.37
2023-02-19T05:12:19.307Z,19.50
2023-02-19T05:13:19.163Z,19.48
2023-02-19T05:14:19.128Z,19.44
2023-02-19T05:15:19.119Z,19.50
2023-02-19T05:16:19.234Z,19.55
2023-02-19T05:17:19.094Z,19.66
2023-02-19T05:18:19.108Z,19.64
2023-02-19T05:19:19.325Z,19.81
2023-02-19T05:20:19.360Z,19.86
2023-02-19T05:21:19.032Z,19.96
2023-02-19T05:22:19.425Z,19.90
2023-02-19T05:23:19.446Z,19.94
2023-02-19T05:24:19.491Z,20.01
2023-02-19T05:25:18.989Z,19.98
2023-02-19T05:26:19.680Z,20.07
2023-02-19T05:27:18.972Z,20.09
2023-02-19T05:28:18.983Z,20.19
2023-02-19T05:29:18.968Z,20.19
2023-02-19T05:30:18.975Z,20.17
2023-02-19T05:31:19.824Z,20.25
2023-02-19T05:32:19.735Z,20.32
2023-02-19T05:33:18.904Z,20.38
2023-02-19T05:34:18.929Z,20.48
2023-02-19T05:35:18.869Z,20.54
2023-02-19T05:36:18.890Z,20.62
2023-02-19T05:37:18.845Z,20.68
2023-02-19T05:38:18.855Z,20.68
2023-02-19T05:39:18.859Z,20.73
2023-02-19T05:40:18.879Z,20.73
2023-02-19T05:41:18.809Z,20.85
2023-02-19T05:42:18.800Z,20.85
2023-02-19T05:43:18.786Z,20.89
2023-02-19T05:44:18.797Z,20.93
2023-02-19T05:45:18.781Z,20.91
2023-02-19T05:46:18.780Z,21.01
2023-02-19T05:47:19.189Z,20.99
2023-02-19T05:48:18.890Z,21.04
2023-02-19T05:49:18.717Z,21.06
2023-02-19T05:50:18.709Z,21.14
2023-02-19T05:51:18.707Z,21.12
2023-02-19T05:52:18.692Z,21.12
2023-02-19T05:53:18.660Z,21.18
2023-02-19T05:54:18.673Z,21.21
2023-02-19T05:55:19.464Z,21.21
2023-02-19T05:56:18.902Z,21.25
2023-02-19T05:57:18.618Z,21.21
2023-02-19T05:58:18.630Z,21.21
2023-02-19T05:59:18.593Z,21.21
2023-02-19T06:00:18.647Z,21.23
2023-02-19T06:01:18.588Z,21.27
2023-02-19T06:02:18.570Z,21.14
2023-02-19T06:03:18.773Z,21.23
2023-02-19T06:04:18.801Z,21.18
2023-02-19T06:05:18.520Z,21.29
2023-02-19T06:06:18.554Z,21.31
2023-02-19T06:07:18.509Z,21.33
2023-02-19T06:08:18.525Z,21.33
2023-02-19T06:09:18.497Z,21.29
2023-02-19T06:10:18.479Z,21.29
2023-02-19T06:11:19.026Z,21.33
2023-02-19T06:12:18.467Z,21.31
2023-02-19T06:13:18.433Z,21.29
2023-02-19T06:14:18.450Z,21.27
2023-02-19T06:15:18.414Z,21.27
2023-02-19T06:16:18.981Z,21.42
2023-02-19T06:17:18.389Z,21.60
2023-02-19T06:18:18.389Z,22.10
2023-02-19T06:19:18.381Z,22.67
2023-02-19T06:20:18.384Z,23.27
2023-02-19T06:21:18.358Z,24.25
2023-02-19T06:22:18.354Z,25.34
2023-02-19T06:23:18.320Z,26.65
2023-02-19T06:24:18.536Z,28.35
2023-02-19T06:25:18.301Z,30.01
2023-02-19T06:26:18.321Z,31.90
2023-02-19T06:27:18.284Z,33.90
2023-02-19T06:28:18.293Z,36.18
2023-02-19T06:29:18.257Z,38.92
2023-02-19T06:30:18.296Z,41.74
2023-02-19T06:31:18.836Z,44.38
2023-02-19T06:32:18.441Z,47.73
2023-02-19T06:33:18.201Z,51.88
2023-02-19T06:34:18.215Z,56.11
2023-02-19T06:35:18.895Z,59.40
2023-02-19T06:36:18.952Z,62.30
2023-02-19T06:37:18.166Z,64.90
2023-02-19T06:38:18.166Z,68.33
2023-02-19T06:39:18.929Z,71.22
2023-02-19T06:40:18.937Z,73.40
2023-02-19T06:41:18.127Z,74.44
2023-02-19T06:42:18.414Z,75.11
2023-02-19T06:43:18.110Z,75.24
2023-02-19T06:44:18.137Z,74.84
2023-02-19T06:45:18.068Z,75.31
2023-02-19T06:46:18.112Z,75.78
2023-02-19T06:47:18.057Z,76.68
2023-02-19T06:48:18.245Z,77.67
2023-02-19T06:49:18.139Z,78.40
2023-02-19T06:50:18.019Z,77.60
2023-02-19T06:51:18.489Z,77.82
2023-02-19T06:52:18.020Z,78.40
2023-02-19T06:53:17.994Z,80.35
2023-02-19T06:54:17.997Z,81.83
2023-02-19T06:55:17.961Z,82.47
2023-02-19T06:56:17.956Z,82.47
2023-02-19T06:57:17.932Z,81.75
2023-02-19T06:58:17.932Z,81.44
2023-02-19T06:59:17.941Z,81.44
2023-02-19T07:00:17.947Z,80.97
2023-02-19T07:01:17.931Z,80.19
2023-02-19T07:02:17.887Z,79.74
2023-02-19T07:03:17.869Z,79.21
2023-02-19T07:04:17.915Z,78.47
2023-02-19T07:05:17.839Z,77.67
2023-02-19T07:06:17.836Z,77.10
2023-02-19T07:07:17.963Z,77.46
2023-02-19T07:08:17.826Z,78.32
2023-02-19T07:09:17.808Z,78.40
2023-02-19T07:10:17.794Z,78.11
2023-02-19T07:11:17.946Z,78.18
2023-02-19T07:12:17.776Z,78.18
2023-02-19T07:13:17.744Z,78.69
2023-02-19T07:14:17.748Z,79.14
2023-02-19T07:15:17.950Z,79.06
2023-02-19T07:16:17.749Z,79.44
2023-02-19T07:17:17.695Z,79.51
2023-02-19T07:18:17.695Z,79.44
2023-02-19T07:19:17.678Z,79.21
2023-02-19T07:20:17.697Z,79.06
2023-02-19T07:21:17.636Z,78.84
2023-02-19T07:22:17.647Z,78.40
2023-02-19T07:23:17.958Z,77.96
2023-02-19T07:24:17.630Z,77.60
2023-02-19T07:25:17.612Z,78.25
2023-02-19T07:26:17.966Z,78.54
2023-02-19T07:27:17.580Z,78.47
2023-02-19T07:28:17.594Z,77.10
2023-02-19T07:29:17.564Z,77.46
2023-02-19T07:30:17.595Z,78.18
2023-02-19T07:31:17.723Z,78.99
2023-02-19T07:32:17.561Z,79.89
2023-02-19T07:33:17.505Z,82.23
2023-02-19T07:34:17.531Z,83.96
2023-02-19T07:35:17.484Z,85.06
2023-02-19T07:36:17.508Z,86.11
2023-02-19T07:37:17.457Z,86.91
2023-02-19T07:38:17.459Z,88.74
2023-02-19T07:39:17.885Z,90.56
2023-02-19T07:40:17.919Z,92.25
2023-02-19T07:41:17.423Z,94.53
2023-02-19T07:42:17.941Z,94.40
2023-02-19T07:43:17.392Z,96.02
2023-02-19T07:44:17.394Z,98.15
2023-02-19T07:45:17.381Z,99.13
2023-02-19T07:46:17.393Z,99.78
2023-02-19T07:47:17.483Z,99.90
2023-02-19T07:48:17.351Z,100.13
2023-02-19T07:49:17.334Z,99.84
2023-02-19T07:50:17.335Z,100.85
2023-02-19T07:51:17.323Z,100.67
2023-02-19T07:52:17.312Z,102.02
2023-02-19T07:53:17.283Z,103.84
2023-02-19T07:54:17.288Z,105.41
2023-02-19T07:55:17.758Z,107.50
2023-02-19T07:56:17.811Z,110.32
2023-02-19T07:57:17.233Z,112.46
2023-02-19T07:58:17.226Z,113.67
2023-02-19T07:59:17.226Z,114.06
2023-02-19T08:00:17.222Z,114.68
2023-02-19T08:01:17.260Z,115.79
2023-02-19T08:02:17.219Z,116.19
2023-02-19T08:03:18.012Z,116.19
2023-02-19T08:04:17.169Z,115.23
2023-02-19T08:05:17.137Z,109.24
2023-02-19T08:06:17.140Z,107.29
2023-02-19T08:07:17.124Z,107.63
2023-02-19T08:08:17.112Z,107.84
2023-02-19T08:09:17.082Z,107.15
2023-02-19T08:10:17.084Z,107.22
2023-02-19T08:11:18.002Z,108.05
2023-02-19T08:12:17.995Z,109.53
2023-02-19T08:13:17.034Z,110.17
2023-02-19T08:14:17.044Z,111.34
2023-02-19T08:15:17.018Z,112.46
2023-02-19T08:16:24.119Z,113.60
2023-02-19T08:17:18.100Z,113.90
2023-02-19T08:18:16.992Z,113.60
2023-02-19T08:19:17.007Z,114.68
2023-02-19T08:20:16.968Z,115.31
2023-02-19T08:21:16.947Z,114.14
2023-02-19T08:22:16.950Z,114.14
2023-02-19T08:23:16.933Z,114.92
2023-02-19T08:24:16.938Z,116.11
2023-02-19T08:25:16.910Z,117.00
2023-02-19T08:26:16.918Z,118.65
2023-02-19T08:27:16.924Z,119.66
2023-02-19T08:28:16.874Z,120.61
2023-02-19T08:29:16.852Z,120.95
2023-02-19T08:30:16.904Z,121.83
2023-02-19T08:31:16.925Z,124.44
2023-02-19T08:32:16.876Z,127.85
2023-02-19T08:33:16.825Z,129.53
2023-02-19T08:34:16.816Z,130.33
2023-02-19T08:35:16.810Z,130.63
2023-02-19T08:36:16.786Z,132.90
2023-02-19T08:37:16.744Z,136.91
2023-02-19T08:38:16.777Z,139.41
2023-02-19T08:39:16.858Z,141.28
2023-02-19T08:40:16.721Z,143.82
2023-02-19T08:41:16.707Z,146.45
2023-02-19T08:42:16.717Z,146.20
2023-02-19T08:43:16.684Z,145.18
2023-02-19T08:44:16.714Z,144.93
2023-02-19T08:45:16.655Z,144.44
2023-02-19T08:46:16.688Z,143.94
2023-02-19T08:47:16.638Z,142.96
2023-02-19T08:48:16.636Z,141.28
2023-02-19T08:49:16.634Z,139.87
2023-02-19T08:50:16.609Z,139.52
2023-02-19T08:51:16.610Z,139.06
2023-02-19T08:52:16.591Z,137.81
2023-02-19T08:53:16.571Z,136.24
2023-02-19T08:54:16.586Z,135.80
2023-02-19T08:55:16.538Z,134.50
2023-02-19T08:56:16.534Z,131.97
2023-02-19T08:57:16.640Z,129.43
2023-02-19T08:58:16.542Z,127.56
2023-02-19T08:59:16.504Z,125.47
2023-02-19T09:00:16.511Z,124.35
2023-02-19T09:01:16.534Z,123.26
2023-02-19T09:02:16.469Z,122.72
2023-02-19T09:03:16.437Z,121.04
2023-02-19T09:04:16.479Z,120.09
2023-02-19T09:05:16.418Z,118.98
2023-02-19T09:06:16.409Z,118.56
2023-02-19T09:07:16.773Z,119.32
2023-02-19T09:08:16.382Z,118.73
2023-02-19T09:09:16.403Z,118.90
2023-02-19T09:10:16.369Z,119.66
2023-02-19T09:11:16.375Z,120.26
2023-02-19T09:12:16.337Z,120.87
2023-02-19T09:13:16.343Z,121.39
2023-02-19T09:14:16.339Z,121.30
2023-02-19T09:15:16.515Z,122.01
2023-02-19T09:16:16.291Z,126.31
2023-02-19T09:17:16.287Z,127.66
2023-02-19T09:18:16.265Z,128.54
2023-02-19T09:19:16.286Z,130.94
2023-02-19T09:20:16.267Z,132.38
2023-02-19T09:21:16.275Z,133.54
2023-02-19T09:22:16.237Z,133.75
2023-02-19T09:23:16.766Z,133.96
2023-02-19T09:24:16.220Z,135.37
2023-02-19T09:25:16.219Z,138.15
2023-02-19T09:26:16.178Z,140.81
2023-02-19T09:27:16.182Z,142.72
2023-02-19T09:28:16.145Z,146.58
2023-02-19T09:29:16.158Z,150.24
2023-02-19T09:30:16.197Z,152.98
2023-02-19T09:31:16.942Z,154.53
2023-02-19T09:32:18.722Z,152.84
2023-02-19T09:33:16.112Z,152.15
2023-02-19T09:34:16.076Z,151.74
2023-02-19T09:35:16.101Z,150.38
2023-02-19T09:36:16.122Z,148.65
2023-02-19T09:37:16.070Z,149.18
2023-02-19T09:38:16.041Z,149.44
2023-02-19T09:39:16.823Z,153.40
2023-02-19T09:40:16.023Z,154.95
2023-02-19T09:41:16.066Z,158.16
2023-02-19T09:42:16.064Z,161.81
2023-02-19T09:43:16.006Z,166.13
2023-02-19T09:44:15.976Z,167.79
2023-02-19T09:45:16.002Z,170.34
2023-02-19T09:46:15.992Z,169.65
2023-02-19T09:47:16.092Z,171.91
2023-02-19T09:48:15.919Z,173.68
2023-02-19T09:49:15.948Z,175.68
2023-02-19T09:50:15.903Z,175.31
2023-02-19T09:51:15.914Z,176.60
2023-02-19T09:52:15.870Z,181.17
2023-02-19T09:53:15.876Z,184.96
2023-02-19T09:54:15.852Z,185.97
2023-02-19T09:55:16.081Z,188.52
2023-02-19T09:56:15.842Z,192.69
2023-02-19T09:57:15.852Z,198.84
2023-02-19T09:58:15.800Z,203.86
2023-02-19T09:59:15.806Z,207.84
2023-02-19T10:00:15.771Z,210.62
2023-02-19T10:01:15.847Z,214.16
2023-02-19T10:02:15.759Z,218.84
2023-02-19T10:03:16.028Z,218.70
2023-02-19T10:04:15.727Z,218.99
2023-02-19T10:05:15.773Z,222.68
2023-02-19T10:06:15.722Z,223.28
2023-02-19T10:07:15.737Z,224.79
2023-02-19T10:08:15.690Z,221.93
2023-02-19T10:09:15.688Z,220.60
2023-02-19T10:10:15.666Z,218.99
2023-02-19T10:11:15.728Z,219.71
2023-02-19T10:12:15.640Z,219.57
2023-02-19T10:13:15.629Z,221.48
2023-02-19T10:14:15.627Z,222.68
2023-02-19T10:15:15.621Z,227.90
2023-02-19T10:16:15.667Z,231.89
2023-02-19T10:17:15.591Z,239.45
2023-02-19T10:18:15.559Z,248.07
2023-02-19T10:19:16.097Z,251.28
2023-02-19T10:20:15.541Z,250.71
2023-02-19T10:21:15.545Z,251.47
2023-02-19T10:22:15.531Z,249.95
2023-02-19T10:23:15.523Z,248.63
2023-02-19T10:24:15.511Z,246.78
2023-02-19T10:25:15.508Z,244.95
2023-02-19T10:26:15.456Z,241.73
2023-02-19T10:27:15.550Z,242.61
2023-02-19T10:28:15.450Z,239.80
2023-02-19T10:29:15.458Z,239.80
2023-02-19T10:30:15.469Z,238.59
2023-02-19T10:31:15.791Z,236.54
2023-02-19T10:32:15.451Z,234.86
2023-02-19T10:33:15.414Z,233.37
2023-02-19T10:34:15.375Z,234.36
2023-02-19T10:35:15.629Z,232.87
2023-02-19T10:36:15.364Z,231.57
2023-02-19T10:37:15.524Z,233.20
2023-02-19T10:38:15.335Z,235.53
2023-02-19T10:39:15.335Z,238.07
2023-02-19T10:40:15.337Z,239.97
2023-02-19T10:41:15.323Z,238.76
2023-02-19T10:42:15.302Z,239.28
2023-02-19T10:43:15.312Z,242.61
2023-02-19T10:44:15.252Z,239.62
2023-02-19T10:45:15.277Z,239.28
2023-02-19T10:46:15.251Z,238.76
2023-02-19T10:47:15.240Z,240.15
2023-02-19T10:48:15.244Z,240.49
2023-02-19T10:49:15.220Z,240.15
2023-02-19T10:50:15.205Z,241.02
2023-02-19T10:51:15.567Z,244.23
2023-02-19T10:52:15.171Z,244.23
2023-02-19T10:53:15.634Z,241.73
2023-02-19T10:54:15.151Z,239.10
2023-02-19T10:55:15.152Z,235.86
2023-02-19T10:56:15.139Z,236.03
2023-02-19T10:57:15.145Z,233.20
2023-02-19T10:58:15.115Z,231.57
2023-02-19T10:59:15.135Z,229.48
2023-02-19T11:00:15.121Z,227.58
2023-02-19T11:01:15.100Z,228.05
2023-02-19T11:02:15.114Z,232.54
2023-02-19T11:03:15.055Z,233.04
2023-02-19T11:04:15.055Z,234.86
2023-02-19T11:05:15.173Z,238.24
2023-02-19T11:06:15.102Z,239.62
2023-02-19T11:07:15.142Z,244.05
2023-02-19T11:08:14.987Z,247.33
2023-02-19T11:09:15.856Z,252.82
2023-02-19T11:10:15.124Z,259.57
2023-02-19T11:11:14.971Z,265.62
2023-02-19T11:12:15.212Z,268.20
2023-02-19T11:13:15.980Z,276.50
2023-02-19T11:14:15.883Z,281.21
2023-02-19T11:15:14.926Z,285.83
2023-02-19T11:16:14.911Z,286.32
2023-02-19T11:17:14.926Z,290.35
2023-02-19T11:18:14.879Z,293.70
2023-02-19T11:19:14.874Z,296.86
2023-02-19T11:20:14.863Z,296.60
2023-02-19T11:21:14.847Z,299.01
2023-02-19T11:22:14.840Z,302.85
2023-02-19T11:23:15.155Z,305.08
2023-02-19T11:24:14.797Z,304.80
2023-02-19T11:25:15.239Z,302.57
2023-02-19T11:26:15.134Z,297.93
2023-02-19T11:27:14.778Z,293.96
2023-02-19T11:28:14.748Z,289.84
2023-02-19T11:29:14.752Z,287.32
2023-02-19T11:30:14.791Z,284.84
2023-02-19T11:31:15.262Z,280.25
2023-02-19T11:32:14.862Z,280.49
2023-02-19T11:33:14.735Z,278.60
2023-02-19T11:34:14.678Z,274.44
2023-02-19T11:35:14.973Z,274.21
2023-02-19T11:36:14.681Z,271.95
2023-02-19T11:37:14.781Z,270.62
2023-02-19T11:38:14.647Z,267.33
2023-02-19T11:39:15.087Z,261.62
2023-02-19T11:40:14.620Z,258.15
2023-02-19T11:41:14.652Z,249.95
2023-02-19T11:42:14.661Z,241.90
2023-02-19T11:43:14.599Z,234.69
2023-02-19T11:44:14.584Z,224.79
2023-02-19T11:45:14.578Z,214.30
2023-02-19T11:46:14.562Z,202.61
2023-02-19T11:47:15.168Z,191.91
2023-02-19T11:48:14.526Z,184.55
2023-02-19T11:49:14.526Z,175.13
2023-02-19T11:50:14.546Z,165.80
2023-02-19T11:51:14.524Z,158.91
2023-02-19T11:52:14.494Z,154.10
2023-02-19T11:53:14.488Z,148.26
2023-02-19T11:54:14.445Z,141.52
2023-02-19T11:55:15.171Z,132.70
2023-02-19T11:56:15.166Z,125.00
2023-02-19T11:57:14.458Z,118.48
2023-02-19T11:58:14.421Z,111.56
2023-02-19T11:59:14.427Z,105.87
2023-02-19T12:00:14.522Z,100.79
2023-02-19T12:01:14.419Z,96.07
2023-02-19T12:02:14.366Z,93.79
2023-02-19T12:03:14.481Z,89.79
2023-02-19T12:04:14.356Z,86.11
2023-02-19T12:05:14.350Z,82.64
2023-02-19T12:06:14.304Z,79.51
2023-02-19T12:07:16.484Z,79.36
2023-02-19T12:08:14.285Z,81.75
2023-02-19T12:09:14.312Z,82.39
2023-02-19T12:10:14.262Z,81.75
2023-02-19T12:11:14.403Z,80.19
2023-02-19T12:12:14.253Z,79.14
2023-02-19T12:13:14.242Z,79.81
2023-02-19T12:14:14.834Z,80.50
2023-02-19T12:15:14.202Z,79.96
2023-02-19T12:16:14.363Z,78.25
2023-02-19T12:17:14.341Z,76.54
2023-02-19T12:18:14.161Z,74.38
2023-02-19T12:19:14.205Z,72.02
2023-02-19T12:20:14.193Z,69.29
2023-02-19T12:21:14.154Z,66.70
2023-02-19T12:22:14.133Z,65.05
2023-02-19T12:23:14.124Z,63.10
2023-02-19T12:24:14.094Z,61.71
2023-02-19T12:25:14.135Z,60.51
2023-02-19T12:26:14.529Z,59.19
2023-02-19T12:27:14.203Z,57.61
2023-02-19T12:28:14.047Z,55.51
2023-02-19T12:29:14.051Z,53.53
2023-02-19T12:30:14.736Z,51.60
2023-02-19T12:31:14.080Z,49.79
2023-02-19T12:32:13.993Z,47.65
2023-02-19T12:33:14.013Z,45.98
2023-02-19T12:34:13.991Z,44.62
2023-02-19T12:35:14.186Z,43.42
2023-02-19T12:36:14.031Z,42.41
2023-02-19T12:37:13.955Z,41.49
2023-02-19T12:38:14.890Z,41.17
2023-02-19T12:39:14.194Z,40.69
2023-02-19T12:40:13.908Z,40.22
2023-02-19T12:41:14.705Z,39.73
2023-02-19T12:42:14.202Z,39.58
2023-02-19T12:43:14.191Z,38.81
2023-02-19T12:44:14.192Z,38.49